sensor_id;sensor_type;location;lat;lon;timestamp;P1;durP1;ratioP1;P2;durP2;ratioP2
42134;SDS011;28312;43.460;11.810;2023-04-03T00:00:55;1.45;;;1.02;;
42134;SDS011;28312;43.460;11.810;2023-04-03T00:04:59;1.35;;;0.88;;
42134;SDS011;28312;43.460;11.810;2023-04-03T00:09:03;2.47;;;1.15;;
42134;SDS011;28312;43.460;11.810;2023-04-03T00:13:07;2.10;;;0.98;;
42134;SDS011;28312;43.460;11.810;2023-04-03T00:17:10;1.52;;;0.73;;
42134;SDS011;28312;43.460;11.810;2023-04-03T00:21:18;1.10;;;0.90;;
42134;SDS011;28312;43.460;11.810;2023-04-03T00:25:22;1.88;;;0.80;;
42134;SDS011;28312;43.460;11.810;2023-04-03T00:29:27;2.13;;;1.00;;
42134;SDS011;28312;43.460;11.810;2023-04-03T00:33:30;1.70;;;0.90;;
42134;SDS011;28312;43.460;11.810;2023-04-03T00:37:33;2.10;;;0.95;;
42134;SDS011;28312;43.460;11.810;2023-04-03T00:41:37;1.05;;;0.75;;
42134;SDS011;28312;43.460;11.810;2023-04-03T00:45:43;0.68;;;0.52;;
42134;SDS011;28312;43.460;11.810;2023-04-03T00:49:49;4.88;;;0.88;;
42134;SDS011;28312;43.460;11.810;2023-04-03T00:53:54;1.33;;;0.95;;
42134;SDS011;28312;43.460;11.810;2023-04-03T00:58:01;3.28;;;1.83;;
42134;SDS011;28312;43.460;11.810;2023-04-03T01:02:05;1.33;;;1.00;;
42134;SDS011;28312;43.460;11.810;2023-04-03T01:06:09;2.30;;;0.80;;
42134;SDS011;28312;43.460;11.810;2023-04-03T01:10:14;1.45;;;1.08;;
42134;SDS011;28312;43.460;11.810;2023-04-03T01:14:22;2.30;;;1.30;;
42134;SDS011;28312;43.460;11.810;2023-04-03T01:18:26;4.65;;;1.13;;
42134;SDS011;28312;43.460;11.810;2023-04-03T01:22:30;3.75;;;1.95;;
42134;SDS011;28312;43.460;11.810;2023-04-03T01:26:43;2.10;;;1.23;;
42134;SDS011;28312;43.460;11.810;2023-04-03T01:35:06;3.05;;;1.60;;
42134;SDS011;28312;43.460;11.810;2023-04-03T01:39:11;2.92;;;1.50;;
42134;SDS011;28312;43.460;11.810;2023-04-03T01:43:15;2.65;;;1.40;;
42134;SDS011;28312;43.460;11.810;2023-04-03T01:47:19;2.33;;;1.55;;
42134;SDS011;28312;43.460;11.810;2023-04-03T01:51:23;2.67;;;1.58;;
42134;SDS011;28312;43.460;11.810;2023-04-03T01:55:26;2.17;;;1.20;;
42134;SDS011;28312;43.460;11.810;2023-04-03T01:59:30;1.67;;;1.13;;
42134;SDS011;28312;43.460;11.810;2023-04-03T02:03:34;1.90;;;1.20;;
42134;SDS011;28312;43.460;11.810;2023-04-03T02:07:37;2.67;;;1.70;;
42134;SDS011;28312;43.460;11.810;2023-04-03T02:11:43;1.45;;;1.00;;
42134;SDS011;28312;43.460;11.810;2023-04-03T02:15:46;2.50;;;1.27;;
42134;SDS011;28312;43.460;11.810;2023-04-03T02:19:51;1.70;;;1.08;;
42134;SDS011;28312;43.460;11.810;2023-04-03T02:23:55;2.15;;;1.23;;
42134;SDS011;28312;43.460;11.810;2023-04-03T02:27:59;3.38;;;1.40;;
42134;SDS011;28312;43.460;11.810;2023-04-03T02:32:02;2.25;;;1.42;;
42134;SDS011;28312;43.460;11.810;2023-04-03T02:40:16;1.40;;;0.90;;
42134;SDS011;28312;43.460;11.810;2023-04-03T02:44:22;2.58;;;0.82;;
42134;SDS011;28312;43.460;11.810;2023-04-03T02:48:27;1.48;;;1.00;;
42134;SDS011;28312;43.460;11.810;2023-04-03T02:52:31;1.90;;;1.00;;
42134;SDS011;28312;43.460;11.810;2023-04-03T02:56:35;1.70;;;1.00;;
42134;SDS011;28312;43.460;11.810;2023-04-03T03:00:41;2.00;;;1.20;;
42134;SDS011;28312;43.460;11.810;2023-04-03T03:04:45;2.47;;;1.17;;
42134;SDS011;28312;43.460;11.810;2023-04-03T03:08:48;3.17;;;1.30;;
42134;SDS011;28312;43.460;11.810;2023-04-03T03:12:52;1.40;;;0.75;;
42134;SDS011;28312;43.460;11.810;2023-04-03T03:16:58;1.73;;;1.00;;
42134;SDS011;28312;43.460;11.810;2023-04-03T03:21:01;1.30;;;0.80;;
42134;SDS011;28312;43.460;11.810;2023-04-03T03:25:07;3.15;;;0.95;;
42134;SDS011;28312;43.460;11.810;2023-04-03T03:29:11;2.00;;;1.00;;
42134;SDS011;28312;43.460;11.810;2023-04-03T03:33:19;1.70;;;1.13;;
42134;SDS011;28312;43.460;11.810;2023-04-03T03:37:23;1.70;;;0.90;;
42134;SDS011;28312;43.460;11.810;2023-04-03T03:41:26;1.48;;;1.00;;
42134;SDS011;28312;43.460;11.810;2023-04-03T03:45:30;1.73;;;0.77;;
42134;SDS011;28312;43.460;11.810;2023-04-03T03:49:34;1.55;;;0.90;;
42134;SDS011;28312;43.460;11.810;2023-04-03T03:53:38;1.10;;;0.68;;
42134;SDS011;28312;43.460;11.810;2023-04-03T03:57:46;0.98;;;0.52;;
42134;SDS011;28312;43.460;11.810;2023-04-03T04:01:50;1.02;;;0.68;;
42134;SDS011;28312;43.460;11.810;2023-04-03T04:05:57;1.17;;;0.73;;
42134;SDS011;28312;43.460;11.810;2023-04-03T04:10:02;1.42;;;0.70;;
42134;SDS011;28312;43.460;11.810;2023-04-03T04:14:07;0.98;;;0.70;;
42134;SDS011;28312;43.460;11.810;2023-04-03T04:18:13;1.23;;;0.82;;
42134;SDS011;28312;43.460;11.810;2023-04-03T04:22:20;0.70;;;0.47;;
42134;SDS011;28312;43.460;11.810;2023-04-03T04:26:24;1.08;;;0.70;;
42134;SDS011;28312;43.460;11.810;2023-04-03T04:30:29;1.00;;;0.57;;
42134;SDS011;28312;43.460;11.810;2023-04-03T04:34:34;1.23;;;0.60;;
42134;SDS011;28312;43.460;11.810;2023-04-03T04:38:38;1.33;;;0.70;;
42134;SDS011;28312;43.460;11.810;2023-04-03T04:42:42;0.85;;;0.60;;
42134;SDS011;28312;43.460;11.810;2023-04-03T04:46:46;2.30;;;0.75;;
42134;SDS011;28312;43.460;11.810;2023-04-03T04:50:50;1.20;;;0.60;;
42134;SDS011;28312;43.460;11.810;2023-04-03T04:54:53;2.33;;;0.90;;
42134;SDS011;28312;43.460;11.810;2023-04-03T04:58:57;1.15;;;0.70;;
42134;SDS011;28312;43.460;11.810;2023-04-03T05:03:02;1.20;;;0.63;;
42134;SDS011;28312;43.460;11.810;2023-04-03T05:07:06;3.40;;;0.80;;
42134;SDS011;28312;43.460;11.810;2023-04-03T05:11:11;2.13;;;0.85;;
42134;SDS011;28312;43.460;11.810;2023-04-03T05:15:16;1.95;;;0.93;;
42134;SDS011;28312;43.460;11.810;2023-04-03T05:19:23;0.82;;;0.45;;
42134;SDS011;28312;43.460;11.810;2023-04-03T05:23:27;2.00;;;0.70;;
42134;SDS011;28312;43.460;11.810;2023-04-03T05:27:33;1.57;;;0.60;;
42134;SDS011;28312;43.460;11.810;2023-04-03T05:31:37;1.23;;;0.70;;
42134;SDS011;28312;43.460;11.810;2023-04-03T05:35:43;2.73;;;0.80;;
42134;SDS011;28312;43.460;11.810;2023-04-03T05:39:53;2.40;;;0.80;;
42134;SDS011;28312;43.460;11.810;2023-04-03T05:43:58;1.17;;;0.82;;
42134;SDS011;28312;43.460;11.810;2023-04-03T05:48:02;0.80;;;0.60;;
42134;SDS011;28312;43.460;11.810;2023-04-03T05:52:17;2.20;;;0.73;;
42134;SDS011;28312;43.460;11.810;2023-04-03T05:56:26;2.45;;;1.20;;
42134;SDS011;28312;43.460;11.810;2023-04-03T06:00:30;1.55;;;0.80;;
42134;SDS011;28312;43.460;11.810;2023-04-03T06:04:37;2.75;;;0.88;;
42134;SDS011;28312;43.460;11.810;2023-04-03T06:08:41;2.00;;;0.73;;
42134;SDS011;28312;43.460;11.810;2023-04-03T06:12:46;3.20;;;1.15;;
42134;SDS011;28312;43.460;11.810;2023-04-03T06:16:50;2.13;;;0.85;;
42134;SDS011;28312;43.460;11.810;2023-04-03T06:20:54;0.88;;;0.60;;
42134;SDS011;28312;43.460;11.810;2023-04-03T06:24:59;1.15;;;0.82;;
42134;SDS011;28312;43.460;11.810;2023-04-03T06:29:02;1.15;;;0.70;;
42134;SDS011;28312;43.460;11.810;2023-04-03T06:33:06;1.02;;;0.55;;
42134;SDS011;28312;43.460;11.810;2023-04-03T06:37:20;2.83;;;0.68;;
42134;SDS011;28312;43.460;11.810;2023-04-03T06:41:25;1.53;;;0.90;;
42134;SDS011;28312;43.460;11.810;2023-04-03T06:45:29;1.60;;;1.00;;
42134;SDS011;28312;43.460;11.810;2023-04-03T06:49:33;1.95;;;1.00;;
42134;SDS011;28312;43.460;11.810;2023-04-03T06:53:36;2.08;;;0.88;;
42134;SDS011;28312;43.460;11.810;2023-04-03T06:57:40;1.30;;;0.77;;
42134;SDS011;28312;43.460;11.810;2023-04-03T07:01:44;1.45;;;0.77;;
42134;SDS011;28312;43.460;11.810;2023-04-03T07:05:47;2.78;;;1.30;;
42134;SDS011;28312;43.460;11.810;2023-04-03T07:09:51;2.08;;;0.98;;
42134;SDS011;28312;43.460;11.810;2023-04-03T07:13:57;2.55;;;1.10;;
42134;SDS011;28312;43.460;11.810;2023-04-03T07:18:00;2.58;;;0.70;;
42134;SDS011;28312;43.460;11.810;2023-04-03T07:22:04;1.20;;;0.70;;
42134;SDS011;28312;43.460;11.810;2023-04-03T07:26:07;2.28;;;1.10;;
42134;SDS011;28312;43.460;11.810;2023-04-03T07:30:12;3.22;;;0.90;;
42134;SDS011;28312;43.460;11.810;2023-04-03T07:34:16;5.72;;;0.95;;
42134;SDS011;28312;43.460;11.810;2023-04-03T07:38:20;2.78;;;0.90;;
42134;SDS011;28312;43.460;11.810;2023-04-03T07:42:23;2.47;;;1.00;;
42134;SDS011;28312;43.460;11.810;2023-04-03T07:46:29;1.48;;;0.63;;
42134;SDS011;28312;43.460;11.810;2023-04-03T07:50:33;4.53;;;0.90;;
42134;SDS011;28312;43.460;11.810;2023-04-03T07:54:36;1.23;;;0.68;;
42134;SDS011;28312;43.460;11.810;2023-04-03T07:58:40;1.02;;;0.65;;
42134;SDS011;28312;43.460;11.810;2023-04-03T08:02:43;1.60;;;0.70;;
42134;SDS011;28312;43.460;11.810;2023-04-03T08:06:53;3.38;;;1.10;;
42134;SDS011;28312;43.460;11.810;2023-04-03T08:10:57;1.58;;;0.65;;
42134;SDS011;28312;43.460;11.810;2023-04-03T08:19:06;1.88;;;0.98;;
42134;SDS011;28312;43.460;11.810;2023-04-03T08:23:20;1.60;;;0.80;;
42134;SDS011;28312;43.460;11.810;2023-04-03T08:27:23;2.22;;;1.25;;
42134;SDS011;28312;43.460;11.810;2023-04-03T08:31:27;2.63;;;1.10;;
42134;SDS011;28312;43.460;11.810;2023-04-03T08:35:31;1.95;;;0.85;;
42134;SDS011;28312;43.460;11.810;2023-04-03T08:39:34;2.15;;;0.80;;
42134;SDS011;28312;43.460;11.810;2023-04-03T08:43:47;1.90;;;0.65;;
42134;SDS011;28312;43.460;11.810;2023-04-03T08:48:31;1.48;;;0.63;;
42134;SDS011;28312;43.460;11.810;2023-04-03T08:52:41;3.95;;;1.20;;
42134;SDS011;28312;43.460;11.810;2023-04-03T08:56:47;1.30;;;0.55;;
42134;SDS011;28312;43.460;11.810;2023-04-03T09:00:53;3.75;;;0.80;;
42134;SDS011;28312;43.460;11.810;2023-04-03T09:05:09;1.92;;;0.95;;
42134;SDS011;28312;43.460;11.810;2023-04-03T09:09:27;1.83;;;0.77;;
42134;SDS011;28312;43.460;11.810;2023-04-03T09:13:40;2.03;;;1.00;;
42134;SDS011;28312;43.460;11.810;2023-04-03T09:17:59;2.70;;;0.90;;
42134;SDS011;28312;43.460;11.810;2023-04-03T09:30:28;6.05;;;1.30;;
42134;SDS011;28312;43.460;11.810;2023-04-03T09:34:35;2.10;;;0.95;;
42134;SDS011;28312;43.460;11.810;2023-04-03T09:38:39;2.47;;;1.20;;
42134;SDS011;28312;43.460;11.810;2023-04-03T09:42:43;3.58;;;1.30;;
42134;SDS011;28312;43.460;11.810;2023-04-03T09:46:53;2.72;;;1.00;;
42134;SDS011;28312;43.460;11.810;2023-04-03T09:50:57;3.03;;;1.00;;
42134;SDS011;28312;43.460;11.810;2023-04-03T09:55:08;3.58;;;0.80;;
42134;SDS011;28312;43.460;11.810;2023-04-03T09:59:17;2.20;;;1.25;;
42134;SDS011;28312;43.460;11.810;2023-04-03T10:03:38;2.17;;;1.15;;
42134;SDS011;28312;43.460;11.810;2023-04-03T10:07:49;3.85;;;0.90;;
42134;SDS011;28312;43.460;11.810;2023-04-03T10:12:06;1.13;;;0.67;;
42134;SDS011;28312;43.460;11.810;2023-04-03T10:16:14;2.08;;;0.98;;
42134;SDS011;28312;43.460;11.810;2023-04-03T10:20:53;2.95;;;1.02;;
42134;SDS011;28312;43.460;11.810;2023-04-03T10:37:24;1.55;;;0.52;;
42134;SDS011;28312;43.460;11.810;2023-04-03T10:54:34;1.58;;;0.73;;
42134;SDS011;28312;43.460;11.810;2023-04-03T10:58:43;1.05;;;0.60;;
42134;SDS011;28312;43.460;11.810;2023-04-03T11:02:55;3.10;;;1.10;;
42134;SDS011;28312;43.460;11.810;2023-04-03T11:07:23;4.68;;;1.13;;
42134;SDS011;28312;43.460;11.810;2023-04-03T11:11:30;1.55;;;0.77;;
42134;SDS011;28312;43.460;11.810;2023-04-03T11:15:38;2.33;;;0.88;;
42134;SDS011;28312;43.460;11.810;2023-04-03T11:24:05;4.47;;;1.30;;
42134;SDS011;28312;43.460;11.810;2023-04-03T11:28:15;2.50;;;0.90;;
42134;SDS011;28312;43.460;11.810;2023-04-03T11:36:56;3.88;;;0.68;;
42134;SDS011;28312;43.460;11.810;2023-04-03T11:41:03;1.67;;;0.63;;
42134;SDS011;28312;43.460;11.810;2023-04-03T12:07:52;1.02;;;0.60;;
42134;SDS011;28312;43.460;11.810;2023-04-03T12:12:36;1.20;;;0.60;;
42134;SDS011;28312;43.460;11.810;2023-04-03T12:16:43;1.67;;;0.80;;
42134;SDS011;28312;43.460;11.810;2023-04-03T12:20:53;1.83;;;0.80;;
42134;SDS011;28312;43.460;11.810;2023-04-03T12:25:00;1.75;;;0.70;;
42134;SDS011;28312;43.460;11.810;2023-04-03T12:34:24;1.63;;;0.98;;
42134;SDS011;28312;43.460;11.810;2023-04-03T12:47:38;1.02;;;0.63;;
42134;SDS011;28312;43.460;11.810;2023-04-03T12:51:47;0.85;;;0.50;;
42134;SDS011;28312;43.460;11.810;2023-04-03T12:55:54;1.83;;;0.82;;
42134;SDS011;28312;43.460;11.810;2023-04-03T12:59:59;1.65;;;0.80;;
42134;SDS011;28312;43.460;11.810;2023-04-03T13:04:04;2.42;;;0.70;;
42134;SDS011;28312;43.460;11.810;2023-04-03T13:08:10;1.27;;;0.60;;
42134;SDS011;28312;43.460;11.810;2023-04-03T13:12:18;3.47;;;0.95;;
42134;SDS011;28312;43.460;11.810;2023-04-03T13:16:23;2.38;;;1.00;;
42134;SDS011;28312;43.460;11.810;2023-04-03T13:20:28;1.38;;;0.80;;
42134;SDS011;28312;43.460;11.810;2023-04-03T13:24:37;1.10;;;0.50;;
42134;SDS011;28312;43.460;11.810;2023-04-03T13:28:42;2.72;;;1.20;;
42134;SDS011;28312;43.460;11.810;2023-04-03T13:32:46;5.03;;;2.00;;
42134;SDS011;28312;43.460;11.810;2023-04-03T13:40:56;5.97;;;1.75;;
42134;SDS011;28312;43.460;11.810;2023-04-03T13:45:22;1.83;;;0.85;;
42134;SDS011;28312;43.460;11.810;2023-04-03T13:53:46;1.70;;;0.73;;
42134;SDS011;28312;43.460;11.810;2023-04-03T13:57:55;1.30;;;0.98;;
42134;SDS011;28312;43.460;11.810;2023-04-03T14:06:05;3.00;;;0.90;;
42134;SDS011;28312;43.460;11.810;2023-04-03T14:10:11;1.13;;;0.80;;
42134;SDS011;28312;43.460;11.810;2023-04-03T14:14:19;3.25;;;0.95;;
42134;SDS011;28312;43.460;11.810;2023-04-03T14:18:28;2.42;;;1.00;;
42134;SDS011;28312;43.460;11.810;2023-04-03T14:22:32;2.30;;;0.82;;
42134;SDS011;28312;43.460;11.810;2023-04-03T14:26:37;1.92;;;0.80;;
42134;SDS011;28312;43.460;11.810;2023-04-03T14:30:41;3.72;;;1.13;;
42134;SDS011;28312;43.460;11.810;2023-04-03T14:34:45;1.88;;;1.05;;
42134;SDS011;28312;43.460;11.810;2023-04-03T14:38:49;5.97;;;1.27;;
42134;SDS011;28312;43.460;11.810;2023-04-03T14:42:55;3.33;;;1.02;;
42134;SDS011;28312;43.460;11.810;2023-04-03T14:47:00;1.65;;;0.75;;
42134;SDS011;28312;43.460;11.810;2023-04-03T14:51:04;1.23;;;0.70;;
42134;SDS011;28312;43.460;11.810;2023-04-03T14:55:08;2.50;;;1.10;;
42134;SDS011;28312;43.460;11.810;2023-04-03T14:59:12;0.82;;;0.52;;
42134;SDS011;28312;43.460;11.810;2023-04-03T15:03:20;1.33;;;0.70;;
42134;SDS011;28312;43.460;11.810;2023-04-03T15:07:26;1.80;;;0.60;;
42134;SDS011;28312;43.460;11.810;2023-04-03T15:11:31;1.05;;;0.70;;
42134;SDS011;28312;43.460;11.810;2023-04-03T15:15:35;2.50;;;0.90;;
42134;SDS011;28312;43.460;11.810;2023-04-03T15:19:40;3.38;;;0.80;;
42134;SDS011;28312;43.460;11.810;2023-04-03T15:23:44;2.13;;;0.80;;
42134;SDS011;28312;43.460;11.810;2023-04-03T15:27:48;0.95;;;0.55;;
42134;SDS011;28312;43.460;11.810;2023-04-03T15:31:52;1.27;;;0.70;;
42134;SDS011;28312;43.460;11.810;2023-04-03T15:35:56;2.50;;;1.02;;
42134;SDS011;28312;43.460;11.810;2023-04-03T15:40:11;2.63;;;1.40;;
42134;SDS011;28312;43.460;11.810;2023-04-03T15:44:15;1.52;;;0.90;;
42134;SDS011;28312;43.460;11.810;2023-04-03T15:48:21;2.90;;;1.23;;
42134;SDS011;28312;43.460;11.810;2023-04-03T15:52:25;1.15;;;0.77;;
42134;SDS011;28312;43.460;11.810;2023-04-03T15:56:28;3.92;;;1.02;;
42134;SDS011;28312;43.460;11.810;2023-04-03T16:00:32;1.40;;;1.00;;
42134;SDS011;28312;43.460;11.810;2023-04-03T16:04:36;2.58;;;1.15;;
42134;SDS011;28312;43.460;11.810;2023-04-03T16:08:39;2.08;;;0.95;;
42134;SDS011;28312;43.460;11.810;2023-04-03T16:12:44;2.22;;;1.05;;
42134;SDS011;28312;43.460;11.810;2023-04-03T16:16:48;6.40;;;1.10;;
42134;SDS011;28312;43.460;11.810;2023-04-03T16:20:52;2.33;;;1.15;;
42134;SDS011;28312;43.460;11.810;2023-04-03T16:24:56;2.47;;;1.20;;
42134;SDS011;28312;43.460;11.810;2023-04-03T16:29:02;2.40;;;1.07;;
42134;SDS011;28312;43.460;11.810;2023-04-03T16:33:05;1.85;;;0.88;;
42134;SDS011;28312;43.460;11.810;2023-04-03T16:37:09;2.47;;;1.00;;
42134;SDS011;28312;43.460;11.810;2023-04-03T16:41:13;3.33;;;1.10;;
42134;SDS011;28312;43.460;11.810;2023-04-03T16:45:17;1.40;;;0.90;;
42134;SDS011;28312;43.460;11.810;2023-04-03T16:49:22;2.95;;;1.38;;
42134;SDS011;28312;43.460;11.810;2023-04-03T16:53:25;4.55;;;1.40;;
42134;SDS011;28312;43.460;11.810;2023-04-03T16:57:29;2.38;;;1.13;;
42134;SDS011;28312;43.460;11.810;2023-04-03T17:01:34;2.30;;;1.00;;
42134;SDS011;28312;43.460;11.810;2023-04-03T17:05:37;1.58;;;0.90;;
42134;SDS011;28312;43.460;11.810;2023-04-03T17:09:41;3.80;;;1.25;;
42134;SDS011;28312;43.460;11.810;2023-04-03T17:13:45;4.32;;;2.30;;
42134;SDS011;28312;43.460;11.810;2023-04-03T17:17:48;8.27;;;5.97;;
42134;SDS011;28312;43.460;11.810;2023-04-03T17:21:53;5.18;;;3.95;;
42134;SDS011;28312;43.460;11.810;2023-04-03T17:25:57;3.85;;;2.47;;
42134;SDS011;28312;43.460;11.810;2023-04-03T17:30:03;2.75;;;1.40;;
42134;SDS011;28312;43.460;11.810;2023-04-03T17:34:07;2.85;;;1.42;;
42134;SDS011;28312;43.460;11.810;2023-04-03T17:42:18;3.30;;;1.20;;
42134;SDS011;28312;43.460;11.810;2023-04-03T17:46:24;3.25;;;1.30;;
42134;SDS011;28312;43.460;11.810;2023-04-03T17:50:29;2.22;;;1.33;;
42134;SDS011;28312;43.460;11.810;2023-04-03T17:54:32;2.50;;;1.30;;
42134;SDS011;28312;43.460;11.810;2023-04-03T17:58:36;3.47;;;1.10;;
42134;SDS011;28312;43.460;11.810;2023-04-03T18:02:39;2.20;;;0.90;;
42134;SDS011;28312;43.460;11.810;2023-04-03T18:06:47;4.13;;;1.08;;
42134;SDS011;28312;43.460;11.810;2023-04-03T18:10:53;4.50;;;3.38;;
42134;SDS011;28312;43.460;11.810;2023-04-03T18:14:58;5.05;;;3.75;;
42134;SDS011;28312;43.460;11.810;2023-04-03T18:19:03;11.13;;;7.93;;
42134;SDS011;28312;43.460;11.810;2023-04-03T18:23:24;17.13;;;13.40;;
42134;SDS011;28312;43.460;11.810;2023-04-03T18:27:29;5.35;;;3.33;;
42134;SDS011;28312;43.460;11.810;2023-04-03T18:31:33;3.95;;;2.40;;
42134;SDS011;28312;43.460;11.810;2023-04-03T18:35:39;3.40;;;2.10;;
42134;SDS011;28312;43.460;11.810;2023-04-03T18:39:43;4.10;;;2.33;;
42134;SDS011;28312;43.460;11.810;2023-04-03T18:43:47;3.67;;;1.95;;
42134;SDS011;28312;43.460;11.810;2023-04-03T18:47:51;2.08;;;1.27;;
42134;SDS011;28312;43.460;11.810;2023-04-03T18:51:55;3.05;;;1.70;;
42134;SDS011;28312;43.460;11.810;2023-04-03T18:55:59;2.38;;;1.60;;
42134;SDS011;28312;43.460;11.810;2023-04-03T19:00:02;4.07;;;1.30;;
42134;SDS011;28312;43.460;11.810;2023-04-03T19:04:07;2.83;;;1.33;;
42134;SDS011;28312;43.460;11.810;2023-04-03T19:08:11;3.13;;;1.00;;
42134;SDS011;28312;43.460;11.810;2023-04-03T19:12:16;1.27;;;0.80;;
42134;SDS011;28312;43.460;11.810;2023-04-03T19:16:19;1.80;;;1.20;;
42134;SDS011;28312;43.460;11.810;2023-04-03T19:20:23;1.33;;;0.85;;
42134;SDS011;28312;43.460;11.810;2023-04-03T19:24:27;2.30;;;1.20;;
42134;SDS011;28312;43.460;11.810;2023-04-03T19:28:31;2.38;;;1.50;;
42134;SDS011;28312;43.460;11.810;2023-04-03T19:32:34;1.50;;;0.88;;
42134;SDS011;28312;43.460;11.810;2023-04-03T19:36:38;3.22;;;1.55;;
42134;SDS011;28312;43.460;11.810;2023-04-03T19:40:44;2.80;;;1.13;;
42134;SDS011;28312;43.460;11.810;2023-04-03T19:44:48;3.42;;;2.22;;
42134;SDS011;28312;43.460;11.810;2023-04-03T19:48:53;3.47;;;2.20;;
42134;SDS011;28312;43.460;11.810;2023-04-03T19:52:58;2.05;;;1.27;;
42134;SDS011;28312;43.460;11.810;2023-04-03T19:57:03;2.45;;;1.50;;
42134;SDS011;28312;43.460;11.810;2023-04-03T20:01:07;1.83;;;1.50;;
42134;SDS011;28312;43.460;11.810;2023-04-03T20:05:11;2.10;;;1.30;;
42134;SDS011;28312;43.460;11.810;2023-04-03T20:09:15;3.42;;;1.40;;
42134;SDS011;28312;43.460;11.810;2023-04-03T20:13:20;5.82;;;2.13;;
42134;SDS011;28312;43.460;11.810;2023-04-03T20:17:24;3.03;;;1.20;;
42134;SDS011;28312;43.460;11.810;2023-04-03T20:21:31;3.97;;;1.10;;
42134;SDS011;28312;43.460;11.810;2023-04-03T20:25:41;2.55;;;1.10;;
42134;SDS011;28312;43.460;11.810;2023-04-03T20:30:03;6.03;;;1.65;;
42134;SDS011;28312;43.460;11.810;2023-04-03T20:34:10;3.55;;;1.17;;
42134;SDS011;28312;43.460;11.810;2023-04-03T20:38:15;2.35;;;1.20;;
42134;SDS011;28312;43.460;11.810;2023-04-03T20:42:18;2.53;;;1.33;;
42134;SDS011;28312;43.460;11.810;2023-04-03T20:46:23;3.60;;;1.58;;
42134;SDS011;28312;43.460;11.810;2023-04-03T20:50:44;5.25;;;1.52;;
42134;SDS011;28312;43.460;11.810;2023-04-03T20:54:49;3.05;;;1.50;;
42134;SDS011;28312;43.460;11.810;2023-04-03T20:58:54;6.40;;;1.58;;
42134;SDS011;28312;43.460;11.810;2023-04-03T21:02:59;1.55;;;0.93;;
42134;SDS011;28312;43.460;11.810;2023-04-03T21:20:30;3.42;;;1.50;;
42134;SDS011;28312;43.460;11.810;2023-04-03T21:24:34;4.40;;;1.58;;
42134;SDS011;28312;43.460;11.810;2023-04-03T21:28:38;2.38;;;1.60;;
42134;SDS011;28312;43.460;11.810;2023-04-03T21:32:43;3.40;;;1.30;;
42134;SDS011;28312;43.460;11.810;2023-04-03T21:36:47;2.65;;;1.33;;
42134;SDS011;28312;43.460;11.810;2023-04-03T21:40:54;6.70;;;1.65;;
42134;SDS011;28312;43.460;11.810;2023-04-03T21:44:59;4.43;;;1.58;;
42134;SDS011;28312;43.460;11.810;2023-04-03T21:49:03;3.20;;;1.48;;
42134;SDS011;28312;43.460;11.810;2023-04-03T21:53:07;2.78;;;1.50;;
42134;SDS011;28312;43.460;11.810;2023-04-03T21:57:11;4.20;;;1.38;;
42134;SDS011;28312;43.460;11.810;2023-04-03T22:01:15;4.10;;;1.50;;
42134;SDS011;28312;43.460;11.810;2023-04-03T22:05:22;4.13;;;1.33;;
42134;SDS011;28312;43.460;11.810;2023-04-03T22:09:25;2.95;;;1.48;;
42134;SDS011;28312;43.460;11.810;2023-04-03T22:13:29;2.47;;;1.08;;
42134;SDS011;28312;43.460;11.810;2023-04-03T22:17:33;4.95;;;1.65;;
42134;SDS011;28312;43.460;11.810;2023-04-03T22:21:36;2.95;;;1.20;;
42134;SDS011;28312;43.460;11.810;2023-04-03T22:25:39;3.63;;;1.30;;
42134;SDS011;28312;43.460;11.810;2023-04-03T22:29:43;5.32;;;1.88;;
42134;SDS011;28312;43.460;11.810;2023-04-03T22:33:47;2.40;;;1.42;;
42134;SDS011;28312;43.460;11.810;2023-04-03T22:37:52;4.22;;;1.48;;
42134;SDS011;28312;43.460;11.810;2023-04-03T22:41:56;3.78;;;1.42;;
42134;SDS011;28312;43.460;11.810;2023-04-03T22:46:00;3.70;;;1.92;;
42134;SDS011;28312;43.460;11.810;2023-04-03T22:50:05;5.50;;;1.58;;
42134;SDS011;28312;43.460;11.810;2023-04-03T22:54:10;3.33;;;1.70;;
42134;SDS011;28312;43.460;11.810;2023-04-03T22:58:14;6.45;;;2.20;;
42134;SDS011;28312;43.460;11.810;2023-04-03T23:02:17;2.13;;;1.35;;
42134;SDS011;28312;43.460;11.810;2023-04-03T23:06:21;5.65;;;1.92;;
42134;SDS011;28312;43.460;11.810;2023-04-03T23:10:25;3.50;;;1.80;;
42134;SDS011;28312;43.460;11.810;2023-04-03T23:14:29;2.60;;;1.40;;
42134;SDS011;28312;43.460;11.810;2023-04-03T23:18:32;5.47;;;1.95;;
42134;SDS011;28312;43.460;11.810;2023-04-03T23:22:36;4.78;;;1.70;;
42134;SDS011;28312;43.460;11.810;2023-04-03T23:26:40;3.55;;;1.38;;
42134;SDS011;28312;43.460;11.810;2023-04-03T23:30:43;4.28;;;1.70;;
42134;SDS011;28312;43.460;11.810;2023-04-03T23:34:47;8.00;;;1.92;;
42134;SDS011;28312;43.460;11.810;2023-04-03T23:38:54;2.58;;;1.50;;
42134;SDS011;28312;43.460;11.810;2023-04-03T23:42:58;5.95;;;2.38;;
42134;SDS011;28312;43.460;11.810;2023-04-03T23:47:02;4.03;;;1.88;;
42134;SDS011;28312;43.460;11.810;2023-04-03T23:51:05;2.88;;;1.60;;
42134;SDS011;28312;43.460;11.810;2023-04-03T23:55:09;5.55;;;1.45;;
42134;SDS011;28312;43.460;11.810;2023-04-03T23:59:14;3.40;;;1.65;;
